createdAt,value
2017-08-28T00:01:31.768Z,73.50
2017-08-28T00:03:59.781Z,73.40
2017-08-28T00:06:27.349Z,73.60
2017-08-28T00:08:54.945Z,73.60
2017-08-28T00:11:22.973Z,73.90
2017-08-28T00:13:50.535Z,74.10
2017-08-28T00:16:18.091Z,74.10
2017-08-28T00:18:46.165Z,74.40
2017-08-28T00:21:13.730Z,74.70
2017-08-28T00:23:41.283Z,74.70
2017-08-28T00:26:09.164Z,74.80
2017-08-28T00:28:36.754Z,74.80
2017-08-28T00:31:04.319Z,75.20
2017-08-28T00:33:32.239Z,74.70
2017-08-28T00:35:59.784Z,74.70
2017-08-28T00:38:27.351Z,74.70
2017-08-28T00:40:55.316Z,74.60
2017-08-28T00:43:22.876Z,74.40
2017-08-28T00:45:50.440Z,74.60
2017-08-28T00:48:18.485Z,74.60
2017-08-28T00:50:46.038Z,74.60
2017-08-28T00:53:13.618Z,74.60
2017-08-28T00:55:41.506Z,74.60
2017-08-28T00:58:09.080Z,74.50
2017-08-28T01:00:36.640Z,74.50
2017-08-28T01:03:04.703Z,74.50
2017-08-28T01:05:32.296Z,74.70
2017-08-28T01:07:59.846Z,74.50
2017-08-28T01:10:27.850Z,74.50
2017-08-28T01:12:55.430Z,74.50
2017-08-28T01:15:23.005Z,75.00
2017-08-28T01:17:50.950Z,74.70
2017-08-28T01:20:18.481Z,74.50
2017-08-28T01:22:46.066Z,74.80
2017-08-28T01:25:14.095Z,75.00
2017-08-28T01:27:41.652Z,75.10
2017-08-28T01:30:09.220Z,75.50
2017-08-28T01:32:37.819Z,75.70
2017-08-28T01:35:05.392Z,75.20
2017-08-28T01:37:32.967Z,75.40
2017-08-28T01:40:00.851Z,75.20
2017-08-28T01:42:28.396Z,75.50
2017-08-28T01:44:55.955Z,75.50
2017-08-28T01:47:23.844Z,76.10
2017-08-28T01:49:51.437Z,76.20
2017-08-28T01:52:19.001Z,75.80
2017-08-28T01:54:47.030Z,75.90
2017-08-28T01:57:14.607Z,75.80
2017-08-28T01:59:42.176Z,76.40
2017-08-28T02:02:10.224Z,75.70
2017-08-28T02:04:37.797Z,75.90
2017-08-28T02:07:05.367Z,76.00
2017-08-28T02:09:33.237Z,76.00
2017-08-28T02:12:00.851Z,75.80
2017-08-28T02:14:28.417Z,76.00
2017-08-28T02:16:56.362Z,76.00
2017-08-28T02:19:23.934Z,76.20
2017-08-28T02:21:51.491Z,76.30
2017-08-28T02:24:19.384Z,76.30
2017-08-28T02:26:46.961Z,76.50
2017-08-28T02:29:14.527Z,76.50
2017-08-28T02:31:42.560Z,76.70
2017-08-28T02:34:10.117Z,76.50
2017-08-28T02:36:37.672Z,76.30
2017-08-28T02:39:05.542Z,76.60
2017-08-28T02:41:33.098Z,77.00
2017-08-28T02:44:00.653Z,76.90
2017-08-28T02:46:28.524Z,77.20
2017-08-28T02:48:56.084Z,76.50
2017-08-28T02:51:23.662Z,76.50
2017-08-28T02:53:51.724Z,77.00
2017-08-28T02:56:19.280Z,77.00
2017-08-28T02:58:46.843Z,77.10
2017-08-28T03:01:14.908Z,77.40
2017-08-28T03:03:42.472Z,77.10
2017-08-28T03:06:10.039Z,77.00
2017-08-28T03:08:37.959Z,77.00
2017-08-28T03:11:05.517Z,77.10
2017-08-28T03:13:33.288Z,77.10
2017-08-28T03:16:01.200Z,77.10
2017-08-28T03:18:28.757Z,77.20
2017-08-28T03:20:56.334Z,77.20
2017-08-28T03:23:24.276Z,77.20
2017-08-28T03:25:51.837Z,77.30
2017-08-28T03:28:19.388Z,77.30
2017-08-28T03:30:47.507Z,77.60
2017-08-28T03:33:15.062Z,77.70
2017-08-28T03:35:42.621Z,77.60
2017-08-28T03:38:10.729Z,77.40
2017-08-28T03:40:38.286Z,77.30
2017-08-28T03:43:05.872Z,77.30
2017-08-28T03:45:33.772Z,77.50
2017-08-28T03:48:01.353Z,77.60
2017-08-28T03:50:28.917Z,77.30
2017-08-28T03:52:56.847Z,78.10
2017-08-28T03:55:24.413Z,78.10
2017-08-28T03:57:51.979Z,78.10
2017-08-28T04:00:19.999Z,77.90
2017-08-28T04:02:47.610Z,78.60
2017-08-28T04:05:15.268Z,78.00
2017-08-28T04:07:43.182Z,78.00
2017-08-28T04:10:10.747Z,78.00
2017-08-28T04:12:38.304Z,78.00
2017-08-28T04:15:06.220Z,78.00
2017-08-28T04:17:34.684Z,78.00
2017-08-28T04:20:02.275Z,77.50
2017-08-28T04:22:30.230Z,78.00
2017-08-28T04:24:57.787Z,78.00
2017-08-28T04:27:25.362Z,78.40
2017-08-28T04:29:53.263Z,78.00
2017-08-28T04:32:20.821Z,78.00
2017-08-28T04:34:48.391Z,78.10
2017-08-28T04:37:16.333Z,78.70
2017-08-28T04:39:43.889Z,78.10
2017-08-28T04:42:11.435Z,78.10
2017-08-28T04:44:39.389Z,78.10
2017-08-28T04:47:06.969Z,78.10
2017-08-28T04:49:34.558Z,77.90
2017-08-28T04:52:02.563Z,78.10
2017-08-28T04:54:30.152Z,78.20
2017-08-28T04:56:57.736Z,77.90
2017-08-28T04:59:25.767Z,77.80
2017-08-28T05:01:53.328Z,77.80
2017-08-28T05:04:20.884Z,77.90
2017-08-28T05:06:48.959Z,77.70
2017-08-28T05:09:16.549Z,77.40
2017-08-28T05:11:44.312Z,77.30
2017-08-28T05:14:12.343Z,77.40
2017-08-28T05:16:39.914Z,77.80
2017-08-28T05:19:07.488Z,78.50
2017-08-28T05:21:35.560Z,78.00
2017-08-28T05:24:03.142Z,78.20
2017-08-28T05:26:30.722Z,78.10
2017-08-28T05:28:58.330Z,77.90
2017-08-28T05:31:25.938Z,77.50
2017-08-28T05:33:53.552Z,77.20
2017-08-28T05:36:21.264Z,77.00
2017-08-28T05:38:48.877Z,76.70
2017-08-28T05:41:16.440Z,76.40
2017-08-28T05:43:44.052Z,76.20
2017-08-28T05:46:11.657Z,75.90
2017-08-28T05:48:39.266Z,75.80
2017-08-28T05:51:06.902Z,75.20
2017-08-28T05:53:34.505Z,75.10
2017-08-28T05:56:02.068Z,75.10
2017-08-28T05:58:29.650Z,75.20
2017-08-28T06:00:57.226Z,75.30
2017-08-28T06:03:24.849Z,75.30
2017-08-28T06:05:52.435Z,75.30
2017-08-28T06:08:20.118Z,75.40
2017-08-28T06:10:47.677Z,75.60
2017-08-28T06:13:15.291Z,74.90
2017-08-28T06:15:42.859Z,74.90
2017-08-28T06:18:10.444Z,75.00
2017-08-28T06:20:38.006Z,74.90
2017-08-28T06:23:05.615Z,75.30
2017-08-28T06:25:33.177Z,74.90
2017-08-28T06:28:00.794Z,74.70
2017-08-28T06:30:28.362Z,74.70
2017-08-28T06:32:56.309Z,75.20
2017-08-28T06:35:24.117Z,75.30
2017-08-28T06:37:51.695Z,75.30
2017-08-28T06:40:19.291Z,75.40
2017-08-28T06:42:46.863Z,75.00
2017-08-28T06:45:14.450Z,75.80
2017-08-28T06:47:42.146Z,75.30
2017-08-28T06:50:09.765Z,75.30
2017-08-28T06:52:37.327Z,75.30
2017-08-28T06:55:05.239Z,75.50
2017-08-28T06:57:32.821Z,75.20
2017-08-28T07:00:00.368Z,74.60
2017-08-28T07:02:27.982Z,74.30
2017-08-28T07:04:55.536Z,73.80
2017-08-28T07:07:23.548Z,73.70
2017-08-28T07:09:51.108Z,73.40
2017-08-28T07:12:18.656Z,73.30
2017-08-28T07:14:46.255Z,72.80
2017-08-28T07:17:13.864Z,72.80
2017-08-28T07:19:41.867Z,72.70
2017-08-28T07:22:09.428Z,72.70
2017-08-28T07:24:36.997Z,72.90
2017-08-28T07:27:04.609Z,73.40
2017-08-28T07:29:32.182Z,73.90
2017-08-28T07:32:00.174Z,72.80
2017-08-28T07:34:27.881Z,72.50
2017-08-28T07:36:55.434Z,72.30
2017-08-28T07:39:23.042Z,72.40
2017-08-28T07:41:50.634Z,72.50
2017-08-28T07:44:18.695Z,72.40
2017-08-28T07:46:46.355Z,71.90
2017-08-28T07:49:13.933Z,71.60
2017-08-28T07:51:41.544Z,71.50
2017-08-28T07:54:09.126Z,71.30
2017-08-28T07:56:37.043Z,71.00
2017-08-28T07:59:04.597Z,71.00
2017-08-28T08:01:32.175Z,70.80
2017-08-28T08:03:59.789Z,70.50
2017-08-28T08:06:27.350Z,70.50
2017-08-28T08:08:55.329Z,71.10
2017-08-28T08:11:22.982Z,70.00
2017-08-28T08:13:50.560Z,70.00
2017-08-28T08:16:18.176Z,70.20
2017-08-28T08:18:45.794Z,69.40
2017-08-28T08:21:13.816Z,69.10
2017-08-28T08:23:41.441Z,69.10
2017-08-28T08:26:08.983Z,69.60
2017-08-28T08:28:36.743Z,69.20
2017-08-28T08:31:04.288Z,69.30
2017-08-28T08:33:37.861Z,69.40
2017-08-28T08:36:05.437Z,69.10
2017-08-28T08:38:33.016Z,68.40
2017-08-28T08:41:00.620Z,68.30
2017-08-28T08:43:28.191Z,68.10
2017-08-28T08:45:56.178Z,68.20
2017-08-28T08:48:23.757Z,67.70
2017-08-28T08:50:51.329Z,67.40
2017-08-28T08:53:18.946Z,67.20
2017-08-28T08:55:46.510Z,67.80
2017-08-28T08:58:14.436Z,66.80
2017-08-28T09:00:42.913Z,66.60
2017-08-28T09:03:10.994Z,66.40
2017-08-28T09:05:38.746Z,66.70
2017-08-28T09:08:06.305Z,65.90
2017-08-28T09:10:34.227Z,65.70
2017-08-28T09:13:01.789Z,65.70
2017-08-28T09:15:29.357Z,65.40
2017-08-28T09:17:56.964Z,65.80
2017-08-28T09:20:24.546Z,65.80
2017-08-28T09:22:52.575Z,65.20
2017-08-28T09:25:20.132Z,64.90
2017-08-28T09:27:47.715Z,65.00
2017-08-28T09:30:15.332Z,64.90
2017-08-28T09:32:42.995Z,64.20
2017-08-28T09:35:10.936Z,63.60
2017-08-28T09:37:38.489Z,62.80
2017-08-28T09:40:06.049Z,63.00
2017-08-28T09:42:33.661Z,63.00
2017-08-28T09:45:01.220Z,62.00
2017-08-28T09:47:29.161Z,62.20
2017-08-28T09:49:56.720Z,61.50
2017-08-28T09:52:24.320Z,62.10
2017-08-28T09:54:51.931Z,62.10
2017-08-28T09:57:19.624Z,61.30
2017-08-28T09:59:47.677Z,60.60
2017-08-28T10:02:15.235Z,61.10
2017-08-28T10:04:42.795Z,62.00
2017-08-28T10:07:10.460Z,61.60
2017-08-28T10:09:38.026Z,60.80
2017-08-28T10:12:06.342Z,60.60
2017-08-28T10:14:33.891Z,60.10
2017-08-28T10:17:01.463Z,59.90
2017-08-28T10:19:29.070Z,59.80
2017-08-28T10:21:56.638Z,59.90
2017-08-28T10:24:24.690Z,60.00
2017-08-28T10:26:51.752Z,60.00
2017-08-28T10:29:19.294Z,59.50
2017-08-28T10:31:46.893Z,59.60
2017-08-28T10:34:14.467Z,59.30
2017-08-28T10:36:42.244Z,58.70
2017-08-28T10:39:09.811Z,58.00
2017-08-28T10:41:37.560Z,59.20
2017-08-28T10:44:05.129Z,59.60
2017-08-28T10:46:33.201Z,59.30
2017-08-28T10:49:00.863Z,58.60
2017-08-28T10:51:28.442Z,58.30
2017-08-28T10:53:56.043Z,58.80
2017-08-28T10:56:23.656Z,59.30
2017-08-28T10:58:52.557Z,58.30
2017-08-28T11:01:20.201Z,58.00
2017-08-28T11:03:47.782Z,57.60
2017-08-28T11:06:15.391Z,57.40
2017-08-28T11:08:42.961Z,57.60
2017-08-28T11:11:11.119Z,57.70
2017-08-28T11:13:38.678Z,58.40
2017-08-28T11:16:06.236Z,58.60
2017-08-28T11:18:33.835Z,57.70
2017-08-28T11:21:01.403Z,57.50
2017-08-28T11:23:29.410Z,57.60
2017-08-28T11:25:56.998Z,58.20
2017-08-28T11:28:24.558Z,59.10
2017-08-28T11:30:52.280Z,57.30
2017-08-28T11:33:19.875Z,57.80
2017-08-28T11:35:47.908Z,56.90
2017-08-28T11:38:15.475Z,57.40
2017-08-28T11:40:43.036Z,56.60
2017-08-28T11:43:10.644Z,56.60
2017-08-28T11:45:38.251Z,57.00
2017-08-28T11:48:06.225Z,58.10
2017-08-28T11:50:33.784Z,58.80
2017-08-28T11:53:01.363Z,58.90
2017-08-28T11:55:28.939Z,58.10
2017-08-28T11:57:56.498Z,58.30
2017-08-28T12:00:24.521Z,58.90
2017-08-28T12:02:52.093Z,59.10
2017-08-28T12:05:19.901Z,58.70
2017-08-28T12:07:47.499Z,58.60
2017-08-28T12:10:15.075Z,57.80
2017-08-28T12:12:43.047Z,57.60
2017-08-28T12:15:10.610Z,57.30
2017-08-28T12:17:38.168Z,56.90
2017-08-28T12:20:05.851Z,56.50
2017-08-28T12:22:33.434Z,56.50
2017-08-28T12:25:01.381Z,56.80
2017-08-28T12:27:28.944Z,56.20
2017-08-28T12:29:56.566Z,58.10
2017-08-28T12:32:24.169Z,58.00
2017-08-28T12:34:51.725Z,58.60
2017-08-28T12:37:19.599Z,58.40
2017-08-28T12:39:47.155Z,58.20
2017-08-28T12:42:14.747Z,58.50
2017-08-28T12:44:42.371Z,58.90
2017-08-28T12:47:09.937Z,59.70
2017-08-28T12:49:37.983Z,58.40
2017-08-28T12:52:05.576Z,58.80
2017-08-28T12:54:33.133Z,58.10
2017-08-28T12:57:00.733Z,58.70
2017-08-28T12:59:28.311Z,59.80
2017-08-28T13:01:56.268Z,60.50
2017-08-28T13:04:23.843Z,59.90
2017-08-28T13:06:51.437Z,59.90
2017-08-28T13:09:19.038Z,59.00
2017-08-28T13:11:46.610Z,58.80
2017-08-28T13:14:14.619Z,58.70
2017-08-28T13:16:42.189Z,58.80
2017-08-28T13:19:10.365Z,57.60
2017-08-28T13:21:37.979Z,55.80
2017-08-28T13:24:05.589Z,54.60
2017-08-28T13:26:33.514Z,51.60
2017-08-28T13:29:01.097Z,51.30
2017-08-28T13:31:28.680Z,49.20
2017-08-28T13:33:56.409Z,48.70
2017-08-28T13:36:24.004Z,46.50
2017-08-28T13:38:52.012Z,46.00
2017-08-28T13:41:19.580Z,45.00
2017-08-28T13:43:47.142Z,43.10
2017-08-28T13:46:14.743Z,41.20
2017-08-28T13:48:43.218Z,41.60
2017-08-28T13:51:11.169Z,38.50
2017-08-28T13:53:38.729Z,38.50
2017-08-28T13:56:06.298Z,37.70
2017-08-28T13:58:33.876Z,36.80
2017-08-28T14:01:01.446Z,37.00
2017-08-28T14:03:29.465Z,36.80
2017-08-28T14:05:57.037Z,36.60
2017-08-28T14:08:24.675Z,35.40
2017-08-28T14:10:52.288Z,38.20
2017-08-28T14:13:19.809Z,36.80
2017-08-28T14:15:47.774Z,35.60
2017-08-28T14:18:15.352Z,35.70
2017-08-28T14:20:42.928Z,36.60
2017-08-28T14:23:10.550Z,37.80
2017-08-28T14:25:38.101Z,39.20
2017-08-28T14:28:06.093Z,39.70
2017-08-28T14:30:33.653Z,40.80
2017-08-28T14:33:01.209Z,42.40
2017-08-28T14:35:28.925Z,44.40
2017-08-28T14:37:56.515Z,45.40
2017-08-28T14:40:24.590Z,46.40
2017-08-28T14:42:52.168Z,46.00
2017-08-28T14:45:19.724Z,46.40
2017-08-28T14:47:47.337Z,47.60
2017-08-28T14:50:14.897Z,47.00
2017-08-28T14:52:42.515Z,47.50
2017-08-28T14:55:10.084Z,49.20
2017-08-28T14:57:38.233Z,49.00
2017-08-28T15:00:05.792Z,48.20
2017-08-28T15:02:33.364Z,48.70
2017-08-28T15:05:00.976Z,48.60
2017-08-28T15:07:28.559Z,48.90
2017-08-28T15:09:56.761Z,48.40
2017-08-28T15:12:24.344Z,48.40
2017-08-28T15:14:51.916Z,50.10
2017-08-28T15:17:19.704Z,49.70
2017-08-28T15:19:47.334Z,50.60
2017-08-28T15:22:15.251Z,50.20
2017-08-28T15:24:42.832Z,50.10
2017-08-28T15:27:10.433Z,51.00
2017-08-28T15:29:38.037Z,51.30
2017-08-28T15:32:05.616Z,51.00
2017-08-28T15:34:33.571Z,51.40
2017-08-28T15:37:01.139Z,51.50
2017-08-28T15:39:28.716Z,51.40
2017-08-28T15:41:56.409Z,52.60
2017-08-28T15:44:24.029Z,53.10
2017-08-28T15:46:51.658Z,52.00
2017-08-28T15:49:19.240Z,52.30
2017-08-28T15:51:47.203Z,52.50
2017-08-28T15:54:14.806Z,52.30
2017-08-28T15:56:42.360Z,52.20
2017-08-28T15:59:10.016Z,52.70
2017-08-28T16:01:37.749Z,52.50
2017-08-28T16:04:05.356Z,52.60
2017-08-28T16:06:33.221Z,52.20
2017-08-28T16:09:00.851Z,52.40
2017-08-28T16:11:28.614Z,54.20
2017-08-28T16:13:56.224Z,53.20
2017-08-28T16:16:23.806Z,54.00
2017-08-28T16:18:51.401Z,53.50
2017-08-28T16:21:18.969Z,52.70
2017-08-28T16:23:46.615Z,52.80
2017-08-28T16:26:14.177Z,52.80
2017-08-28T16:28:41.818Z,53.10
2017-08-28T16:31:09.409Z,53.10
2017-08-28T16:33:37.018Z,53.40
2017-08-28T16:36:04.623Z,53.70
2017-08-28T16:38:32.270Z,53.90
2017-08-28T16:40:59.848Z,54.00
2017-08-28T16:43:27.807Z,54.00
2017-08-28T16:45:55.385Z,53.80
2017-08-28T16:48:22.979Z,54.80
2017-08-28T16:50:51.443Z,53.90
2017-08-28T16:53:19.033Z,53.90
2017-08-28T16:55:46.619Z,53.80
2017-08-28T16:58:14.335Z,53.80
2017-08-28T17:00:41.967Z,53.70
2017-08-28T17:03:09.762Z,53.70
2017-08-28T17:05:37.398Z,53.70
2017-08-28T17:08:04.929Z,53.50
2017-08-28T17:10:32.539Z,53.50
2017-08-28T17:13:00.123Z,53.40
2017-08-28T17:15:27.729Z,53.40
2017-08-28T17:17:55.302Z,54.40
2017-08-28T17:20:22.923Z,54.10
2017-08-28T17:22:50.496Z,54.50
2017-08-28T17:25:18.103Z,54.80
2017-08-28T17:27:46.232Z,55.10
2017-08-28T17:30:13.871Z,55.70
2017-08-28T17:32:41.449Z,56.40
2017-08-28T17:35:09.095Z,56.80
2017-08-28T17:37:36.687Z,56.30
2017-08-28T17:40:04.285Z,56.50
2017-08-28T17:42:31.877Z,56.00
2017-08-28T17:44:59.567Z,55.90
2017-08-28T17:47:27.333Z,56.80
2017-08-28T17:49:54.948Z,57.70
2017-08-28T17:52:22.526Z,58.00
2017-08-28T17:54:50.148Z,57.60
2017-08-28T17:57:17.710Z,58.60
2017-08-28T17:59:45.753Z,59.20
2017-08-28T18:02:13.334Z,59.10
2017-08-28T18:04:40.897Z,59.00
2017-08-28T18:07:08.525Z,59.00
2017-08-28T18:09:36.088Z,58.90
2017-08-28T18:12:03.690Z,58.80
2017-08-28T18:14:31.275Z,58.60
2017-08-28T18:16:58.877Z,59.70
2017-08-28T18:19:26.457Z,59.60
2017-08-28T18:21:54.068Z,60.10
2017-08-28T18:24:21.645Z,60.00
2017-08-28T18:26:49.275Z,60.50
2017-08-28T18:29:17.623Z,60.70
2017-08-28T18:31:45.241Z,60.70
2017-08-28T18:34:12.786Z,61.00
2017-08-28T18:36:40.427Z,61.10
2017-08-28T18:39:08.006Z,61.50
2017-08-28T18:41:35.629Z,61.30
2017-08-28T18:44:03.195Z,61.50
2017-08-28T18:46:30.850Z,62.00
2017-08-28T18:48:58.505Z,62.00
2017-08-28T18:51:26.142Z,62.30
2017-08-28T18:53:53.738Z,62.30
2017-08-28T18:56:21.327Z,62.20
2017-08-28T18:58:48.998Z,62.90
2017-08-28T19:01:16.622Z,62.70
2017-08-28T19:03:44.206Z,62.90
2017-08-28T19:06:11.816Z,62.80
2017-08-28T19:08:39.404Z,62.80
2017-08-28T19:11:07.028Z,62.70
2017-08-28T19:13:34.826Z,63.20
2017-08-28T19:16:02.827Z,63.20
2017-08-28T19:18:30.385Z,63.70
2017-08-28T19:20:57.999Z,64.10
2017-08-28T19:23:25.632Z,64.20
2017-08-28T19:25:53.235Z,64.50
2017-08-28T19:28:20.894Z,64.70
2017-08-28T19:30:48.523Z,64.70
2017-08-28T19:33:16.154Z,64.50
2017-08-28T19:35:43.725Z,64.90
2017-08-28T19:38:11.373Z,65.10
2017-08-28T19:40:38.944Z,65.10
2017-08-28T19:43:06.588Z,65.20
2017-08-28T19:45:34.505Z,65.60
2017-08-28T19:50:36.106Z,65.70
2017-08-28T19:53:03.765Z,65.70
2017-08-28T19:55:31.390Z,66.00
2017-08-28T19:57:59.011Z,67.10
2017-08-28T20:00:26.575Z,66.10
2017-08-28T20:02:55.066Z,66.70
2017-08-28T20:05:22.632Z,65.90
2017-08-28T20:07:50.247Z,66.30
2017-08-28T20:10:17.820Z,67.30
2017-08-28T20:12:45.481Z,66.80
2017-08-28T20:15:13.054Z,67.10
2017-08-28T20:17:40.671Z,66.70
2017-08-28T20:20:08.253Z,66.60
2017-08-28T20:22:35.889Z,66.70
2017-08-28T20:25:03.551Z,66.60
2017-08-28T20:27:31.413Z,66.60
2017-08-28T20:29:58.985Z,66.60
2017-08-28T20:32:26.624Z,66.60
2017-08-28T20:34:54.229Z,66.50
2017-08-28T20:37:21.847Z,66.50
2017-08-28T20:39:49.448Z,66.50
2017-08-28T20:42:17.046Z,66.50
2017-08-28T20:44:45.382Z,66.50
2017-08-28T20:47:12.961Z,66.50
2017-08-28T20:49:40.589Z,66.40
2017-08-28T20:52:08.148Z,66.80
2017-08-28T20:54:36.017Z,66.40
2017-08-28T20:57:03.587Z,66.30
2017-08-28T20:59:31.572Z,67.00
2017-08-28T21:01:59.137Z,67.30
2017-08-28T21:04:27.442Z,67.50
2017-08-28T21:06:55.021Z,67.40
2017-08-28T21:09:23.402Z,66.70
2017-08-28T21:11:51.172Z,66.70
2017-08-28T21:14:18.772Z,66.90
2017-08-28T21:16:46.417Z,67.00
2017-08-28T21:19:14.279Z,67.60
2017-08-28T21:21:42.000Z,67.70
2017-08-28T21:24:09.857Z,67.40
2017-08-28T21:26:37.437Z,67.60
2017-08-28T21:29:05.391Z,67.50
2017-08-28T21:31:33.001Z,67.30
2017-08-28T21:34:00.588Z,67.30
2017-08-28T21:36:28.256Z,67.50
2017-08-28T21:38:55.833Z,67.70
2017-08-28T21:41:23.885Z,68.20
2017-08-28T21:43:51.461Z,68.90
2017-08-28T21:46:19.028Z,68.40
2017-08-28T21:48:47.142Z,68.20
2017-08-28T21:51:14.755Z,68.40
2017-08-28T21:53:42.812Z,68.50
2017-08-28T21:56:10.385Z,68.50
2017-08-28T21:58:37.949Z,68.70
2017-08-28T22:01:05.809Z,68.80
2017-08-28T22:03:33.378Z,68.70
2017-08-28T22:06:01.353Z,68.80
2017-08-28T22:08:28.947Z,68.70
2017-08-28T22:10:56.510Z,68.90
2017-08-28T22:13:24.139Z,69.10
2017-08-28T22:15:51.720Z,68.80
2017-08-28T22:18:19.626Z,69.20
2017-08-28T22:20:47.217Z,69.10
2017-08-28T22:23:14.793Z,69.20
2017-08-28T22:25:42.394Z,69.20
2017-08-28T22:28:09.964Z,69.50
2017-08-28T22:30:37.950Z,69.60
2017-08-28T22:33:05.520Z,69.70
2017-08-28T22:35:33.085Z,69.60
2017-08-28T22:38:00.704Z,69.70
2017-08-28T22:40:28.266Z,69.90
2017-08-28T22:42:56.260Z,70.10
2017-08-28T22:45:23.814Z,69.90
2017-08-28T22:47:51.386Z,70.00
2017-08-28T22:50:18.991Z,70.10
2017-08-28T22:52:46.577Z,70.10
2017-08-28T22:55:14.570Z,70.00
2017-08-28T22:57:42.154Z,70.00
2017-08-28T23:03:10.977Z,69.90
2017-08-28T23:05:38.537Z,69.90
2017-08-28T23:08:06.417Z,69.90
2017-08-28T23:10:34.036Z,69.90
2017-08-28T23:13:01.618Z,70.20
2017-08-28T23:15:29.225Z,70.30
2017-08-28T23:17:56.783Z,70.10
2017-08-28T23:20:24.746Z,70.40
2017-08-28T23:22:52.394Z,70.30
2017-08-28T23:25:19.966Z,70.30
2017-08-28T23:27:47.766Z,70.60
2017-08-28T23:30:15.325Z,70.20
2017-08-28T23:32:43.243Z,70.40
2017-08-28T23:35:10.798Z,70.20
2017-08-28T23:37:38.348Z,70.40
2017-08-28T23:40:05.936Z,71.00
2017-08-28T23:42:33.656Z,70.90
2017-08-28T23:45:01.557Z,70.70
2017-08-28T23:47:29.142Z,70.60
2017-08-28T23:49:56.694Z,70.80
2017-08-28T23:52:24.301Z,71.10
2017-08-28T23:54:51.895Z,71.00
2017-08-28T23:57:19.875Z,71.00
2017-08-28T23:59:47.478Z,71.30
